sensor_id;sensor_type;location;lat;lon;timestamp;pressure;altitude;pressure_sealevel;temperature;humidity
45541;BME280;31265;49.680;8.608;2023-04-05T00:01:36;101265.84;;;0.88;100.00
45541;BME280;31265;49.680;8.608;2023-04-05T00:04:05;101264.44;;;0.93;100.00
45541;BME280;31265;49.680;8.608;2023-04-05T00:06:35;101263.03;;;0.82;100.00
45541;BME280;31265;49.680;8.608;2023-04-05T00:09:05;101264.63;;;0.74;100.00
45541;BME280;31265;49.680;8.608;2023-04-05T00:11:37;101268.41;;;0.77;100.00
45541;BME280;31265;49.680;8.608;2023-04-05T00:14:06;101262.38;;;0.73;100.00
45541;BME280;31265;49.680;8.608;2023-04-05T00:16:35;101254.91;;;0.73;100.00
45541;BME280;31265;49.680;8.608;2023-04-05T00:19:04;101258.22;;;0.62;100.00
45541;BME280;31265;49.680;8.608;2023-04-05T00:21:33;101256.31;;;0.54;100.00
45541;BME280;31265;49.680;8.608;2023-04-05T00:24:01;101246.44;;;0.56;100.00
45541;BME280;31265;49.680;8.608;2023-04-05T00:26:31;101254.06;;;0.52;100.00
45541;BME280;31265;49.680;8.608;2023-04-05T00:29:01;101243.38;;;0.39;100.00
45541;BME280;31265;49.680;8.608;2023-04-05T00:31:29;101243.50;;;0.30;100.00
45541;BME280;31265;49.680;8.608;2023-04-05T00:33:58;101239.34;;;0.20;100.00
45541;BME280;31265;49.680;8.608;2023-04-05T00:36:30;101244.84;;;0.11;100.00
45541;BME280;31265;49.680;8.608;2023-04-05T00:39:01;101241.25;;;0.05;100.00
45541;BME280;31265;49.680;8.608;2023-04-05T00:41:30;101244.63;;;-0.01;100.00
45541;BME280;31265;49.680;8.608;2023-04-05T00:44:00;101240.56;;;-0.05;100.00
45541;BME280;31265;49.680;8.608;2023-04-05T00:46:33;101235.47;;;-0.12;100.00
45541;BME280;31265;49.680;8.608;2023-04-05T00:49:02;101232.06;;;-0.22;100.00
45541;BME280;31265;49.680;8.608;2023-04-05T00:51:32;101234.09;;;-0.32;100.00
45541;BME280;31265;49.680;8.608;2023-04-05T00:54:01;101229.53;;;-0.35;100.00
45541;BME280;31265;49.680;8.608;2023-04-05T00:56:29;101226.41;;;-0.18;100.00
45541;BME280;31265;49.680;8.608;2023-04-05T00:59:00;101227.56;;;-0.10;100.00
45541;BME280;31265;49.680;8.608;2023-04-05T01:01:31;101234.19;;;-0.02;100.00
45541;BME280;31265;49.680;8.608;2023-04-05T01:04:02;101233.25;;;0.01;100.00
45541;BME280;31265;49.680;8.608;2023-04-05T01:06:51;101229.59;;;0.04;100.00
45541;BME280;31265;49.680;8.608;2023-04-05T01:09:32;101235.69;;;-0.01;100.00
45541;BME280;31265;49.680;8.608;2023-04-05T01:12:06;101227.56;;;-0.10;100.00
45541;BME280;31265;49.680;8.608;2023-04-05T01:14:45;101222.66;;;-0.21;100.00
45541;BME280;31265;49.680;8.608;2023-04-05T01:17:16;101224.69;;;-0.31;100.00
45541;BME280;31265;49.680;8.608;2023-04-05T01:19:51;101223.03;;;-0.37;100.00
45541;BME280;31265;49.680;8.608;2023-04-05T01:22:44;101223.03;;;-0.37;100.00
45541;BME280;31265;49.680;8.608;2023-04-05T01:25:31;101215.19;;;-0.45;100.00
45541;BME280;31265;49.680;8.608;2023-04-05T01:28:22;101216.47;;;-0.55;100.00
45541;BME280;31265;49.680;8.608;2023-04-05T01:31:03;101216.06;;;-0.62;100.00
45541;BME280;31265;49.680;8.608;2023-04-05T01:33:40;101216.69;;;-0.68;100.00
45541;BME280;31265;49.680;8.608;2023-04-05T01:36:22;101210.19;;;-0.70;100.00
45541;BME280;31265;49.680;8.608;2023-04-05T01:38:54;101209.28;;;-0.67;100.00
45541;BME280;31265;49.680;8.608;2023-04-05T01:41:24;101207.59;;;-0.65;100.00
45541;BME280;31265;49.680;8.608;2023-04-05T01:43:56;101200.69;;;-0.75;100.00
45541;BME280;31265;49.680;8.608;2023-04-05T01:46:26;101198.78;;;-0.83;100.00
45541;BME280;31265;49.680;8.608;2023-04-05T01:48:55;101198.47;;;-0.85;100.00
45541;BME280;31265;49.680;8.608;2023-04-05T01:51:24;101194.25;;;-0.87;100.00
45541;BME280;31265;49.680;8.608;2023-04-05T01:53:52;101199.09;;;-0.91;100.00
45541;BME280;31265;49.680;8.608;2023-04-05T01:56:21;101191.66;;;-0.90;100.00
45541;BME280;31265;49.680;8.608;2023-04-05T01:58:50;101192.13;;;-0.92;100.00
45541;BME280;31265;49.680;8.608;2023-04-05T02:01:19;101202.41;;;-0.87;100.00
45541;BME280;31265;49.680;8.608;2023-04-05T02:03:49;101192.09;;;-0.82;100.00
45541;BME280;31265;49.680;8.608;2023-04-05T02:06:17;101186.81;;;-0.86;100.00
45541;BME280;31265;49.680;8.608;2023-04-05T02:08:46;101190.31;;;-0.95;100.00
45541;BME280;31265;49.680;8.608;2023-04-05T02:11:20;101200.06;;;-1.03;100.00
45541;BME280;31265;49.680;8.608;2023-04-05T02:13:52;101189.91;;;-1.02;100.00
45541;BME280;31265;49.680;8.608;2023-04-05T02:16:22;101192.19;;;-1.01;100.00
45541;BME280;31265;49.680;8.608;2023-04-05T02:18:54;101192.13;;;-0.92;100.00
45541;BME280;31265;49.680;8.608;2023-04-05T02:21:24;101188.19;;;-0.91;100.00
45541;BME280;31265;49.680;8.608;2023-04-05T02:23:53;101190.44;;;-0.89;100.00
45541;BME280;31265;49.680;8.608;2023-04-05T02:26:22;101189.28;;;-0.97;100.00
45541;BME280;31265;49.680;8.608;2023-04-05T02:28:51;101194.59;;;-1.03;100.00
45541;BME280;31265;49.680;8.608;2023-04-05T02:31:20;101190.97;;;-1.09;100.00
45541;BME280;31265;49.680;8.608;2023-04-05T02:33:48;101195.69;;;-1.10;100.00
45541;BME280;31265;49.680;8.608;2023-04-05T02:36:18;101186.16;;;-1.14;100.00
45541;BME280;31265;49.680;8.608;2023-04-05T02:38:48;101191.47;;;-1.11;100.00
45541;BME280;31265;49.680;8.608;2023-04-05T02:41:16;101186.75;;;-1.10;100.00
45541;BME280;31265;49.680;8.608;2023-04-05T02:43:47;101187.19;;;-1.02;100.00
45541;BME280;31265;49.680;8.608;2023-04-05T02:46:16;101186.41;;;-0.94;100.00
45541;BME280;31265;49.680;8.608;2023-04-05T02:48:45;101190.31;;;-0.95;100.00
45541;BME280;31265;49.680;8.608;2023-04-05T02:51:15;101193.56;;;-1.05;100.00
45541;BME280;31265;49.680;8.608;2023-04-05T02:53:48;101194.34;;;-1.14;100.00
45541;BME280;31265;49.680;8.608;2023-04-05T02:56:16;101184.38;;;-1.17;100.00
45541;BME280;31265;49.680;8.608;2023-04-05T02:58:46;101193.16;;;-1.22;100.00
45541;BME280;31265;49.680;8.608;2023-04-05T03:01:22;101191.81;;;-1.27;100.00
45541;BME280;31265;49.680;8.608;2023-04-05T03:03:50;101188.97;;;-1.33;100.00
45541;BME280;31265;49.680;8.608;2023-04-05T03:06:19;101187.00;;;-1.41;100.00
45541;BME280;31265;49.680;8.608;2023-04-05T03:08:52;101181.88;;;-1.48;100.00
45541;BME280;31265;49.680;8.608;2023-04-05T03:11:24;101184.94;;;-1.56;100.00
45541;BME280;31265;49.680;8.608;2023-04-05T03:13:57;101177.53;;;-1.64;100.00
45541;BME280;31265;49.680;8.608;2023-04-05T03:16:33;101188.59;;;-1.68;100.00
45541;BME280;31265;49.680;8.608;2023-04-05T03:19:15;101185.25;;;-1.72;100.00
45541;BME280;31265;49.680;8.608;2023-04-05T03:21:45;101187.38;;;-1.76;100.00
45541;BME280;31265;49.680;8.608;2023-04-05T03:24:25;101189.50;;;-1.80;100.00
45541;BME280;31265;49.680;8.608;2023-04-05T03:27:00;101179.69;;;-1.87;100.00
45541;BME280;31265;49.680;8.608;2023-04-05T03:29:33;101172.13;;;-1.92;100.00
45541;BME280;31265;49.680;8.608;2023-04-05T03:32:10;101183.00;;;-2.01;100.00
45541;BME280;31265;49.680;8.608;2023-04-05T03:34:46;101176.81;;;-2.02;100.00
45541;BME280;31265;49.680;8.608;2023-04-05T03:37:16;101176.81;;;-2.02;100.00
45541;BME280;31265;49.680;8.608;2023-04-05T03:39:56;101167.72;;;-1.99;100.00
45541;BME280;31265;49.680;8.608;2023-04-05T03:42:25;101170.00;;;-1.97;100.00
45541;BME280;31265;49.680;8.608;2023-04-05T03:44:54;101166.22;;;-2.00;100.00
45541;BME280;31265;49.680;8.608;2023-04-05T03:47:22;101164.72;;;-2.01;100.00
45541;BME280;31265;49.680;8.608;2023-04-05T03:49:51;101165.19;;;-2.02;100.00
45541;BME280;31265;49.680;8.608;2023-04-05T03:52:20;101162.75;;;-2.09;100.00
45541;BME280;31265;49.680;8.608;2023-04-05T03:54:48;101161.72;;;-2.12;100.00
45541;BME280;31265;49.680;8.608;2023-04-05T03:57:24;101157.63;;;-2.17;100.00
45541;BME280;31265;49.680;8.608;2023-04-05T03:59:56;101170.16;;;-2.19;100.00
45541;BME280;31265;49.680;8.608;2023-04-05T04:02:29;101171.66;;;-2.18;100.00
45541;BME280;31265;49.680;8.608;2023-04-05T04:04:58;101171.06;;;-2.22;100.00
45541;BME280;31265;49.680;8.608;2023-04-05T04:07:29;101171.81;;;-2.22;100.00
45541;BME280;31265;49.680;8.608;2023-04-05T04:10:01;101160.94;;;-2.22;100.00
45541;BME280;31265;49.680;8.608;2023-04-05T04:12:32;101162.44;;;-2.21;100.00
45541;BME280;31265;49.680;8.608;2023-04-05T04:15:03;101150.69;;;-2.18;100.00
45541;BME280;31265;49.680;8.608;2023-04-05T04:17:43;101149.75;;;-2.24;100.00
45541;BME280;31265;49.680;8.608;2023-04-05T04:20:38;101153.41;;;-2.27;100.00
45541;BME280;31265;49.680;8.608;2023-04-05T04:23:26;101151.13;;;-2.28;100.00
45541;BME280;31265;49.680;8.608;2023-04-05T04:26:15;101141.59;;;-2.33;100.00
45541;BME280;31265;49.680;8.608;2023-04-05T04:29:09;101149.47;;;-2.17;100.00
45541;BME280;31265;49.680;8.608;2023-04-05T04:31:54;101148.25;;;-2.06;100.00
45541;BME280;31265;49.680;8.608;2023-04-05T04:34:49;101151.28;;;-2.04;100.00
45541;BME280;31265;49.680;8.608;2023-04-05T04:37:53;101152.78;;;-1.94;100.00
45541;BME280;31265;49.680;8.608;2023-04-05T04:40:48;101144.44;;;-1.81;100.00
45541;BME280;31265;49.680;8.608;2023-04-05T04:43:26;101145.97;;;-1.80;100.00
45541;BME280;31265;49.680;8.608;2023-04-05T04:46:13;101143.38;;;-1.75;100.00
45541;BME280;31265;49.680;8.608;2023-04-05T04:48:59;101144.00;;;-1.70;100.00
45541;BME280;31265;49.680;8.608;2023-04-05T04:51:31;101142.75;;;-1.69;100.00
45541;BME280;31265;49.680;8.608;2023-04-05T04:53:59;101152.75;;;-1.76;100.00
45541;BME280;31265;49.680;8.608;2023-04-05T04:56:28;101158.78;;;-1.81;100.00
45541;BME280;31265;49.680;8.608;2023-04-05T04:58:58;101150.34;;;-1.83;100.00
45541;BME280;31265;49.680;8.608;2023-04-05T05:01:29;101152.75;;;-1.76;100.00
45541;BME280;31265;49.680;8.608;2023-04-05T05:04:02;101155.75;;;-1.64;100.00
45541;BME280;31265;49.680;8.608;2023-04-05T05:06:39;101156.81;;;-1.62;100.00
45541;BME280;31265;49.680;8.608;2023-04-05T05:09:12;101163.31;;;-1.68;100.00
45541;BME280;31265;49.680;8.608;2023-04-05T05:11:50;101171.19;;;-1.70;100.00
45541;BME280;31265;49.680;8.608;2023-04-05T05:14:20;101170.59;;;-1.75;100.00
45541;BME280;31265;49.680;8.608;2023-04-05T05:16:50;101168.47;;;-1.80;100.00
45541;BME280;31265;49.680;8.608;2023-04-05T05:19:21;101173.00;;;-1.77;100.00
45541;BME280;31265;49.680;8.608;2023-04-05T05:22:11;101167.44;;;-1.73;100.00
45541;BME280;31265;49.680;8.608;2023-04-05T05:24:39;101164.84;;;-1.67;100.00
45541;BME280;31265;49.680;8.608;2023-04-05T05:27:08;101173.31;;;-1.65;100.00
45541;BME280;31265;49.680;8.608;2023-04-05T05:29:37;101175.88;;;-1.71;100.00
45541;BME280;31265;49.680;8.608;2023-04-05T05:32:07;101180.25;;;-1.64;100.00
45541;BME280;31265;49.680;8.608;2023-04-05T05:34:40;101176.78;;;-1.56;100.00
45541;BME280;31265;49.680;8.608;2023-04-05T05:37:11;101170.84;;;-1.54;100.00
45541;BME280;31265;49.680;8.608;2023-04-05T05:39:44;101173.88;;;-1.52;100.00
45541;BME280;31265;49.680;8.608;2023-04-05T05:42:13;101172.94;;;-1.49;100.00
45541;BME280;31265;49.680;8.608;2023-04-05T05:44:42;101169.19;;;-1.52;100.00
45541;BME280;31265;49.680;8.608;2023-04-05T05:47:13;101170.53;;;-1.47;100.00
45541;BME280;31265;49.680;8.608;2023-04-05T05:49:42;101168.88;;;-1.44;100.00
45541;BME280;31265;49.680;8.608;2023-04-05T05:52:11;101174.59;;;-1.33;100.00
45541;BME280;31265;49.680;8.608;2023-04-05T05:54:39;101170.63;;;-1.23;100.00
45541;BME280;31265;49.680;8.608;2023-04-05T05:57:07;101172.41;;;-1.11;100.00
45541;BME280;31265;49.680;8.608;2023-04-05T05:59:37;101173.41;;;-0.99;100.00
45541;BME280;31265;49.680;8.608;2023-04-05T06:02:06;101174.25;;;-0.83;100.00
45541;BME280;31265;49.680;8.608;2023-04-05T06:04:36;101178.09;;;-0.66;100.00
45541;BME280;31265;49.680;8.608;2023-04-05T06:07:04;101177.66;;;-0.50;100.00
45541;BME280;31265;49.680;8.608;2023-04-05T06:09:33;101185.00;;;-0.32;100.00
45541;BME280;31265;49.680;8.608;2023-04-05T06:12:02;101179.22;;;-0.10;100.00
45541;BME280;31265;49.680;8.608;2023-04-05T06:14:31;101178.41;;;0.14;100.00
45541;BME280;31265;49.680;8.608;2023-04-05T06:16:59;101182.84;;;0.41;100.00
45541;BME280;31265;49.680;8.608;2023-04-05T06:19:29;101180.03;;;0.65;100.00
45541;BME280;31265;49.680;8.608;2023-04-05T06:21:58;101178.13;;;0.86;100.00
45541;BME280;31265;49.680;8.608;2023-04-05T06:24:27;101185.78;;;1.17;100.00
45541;BME280;31265;49.680;8.608;2023-04-05T06:26:58;101187.13;;;1.42;100.00
45541;BME280;31265;49.680;8.608;2023-04-05T06:29:27;101194.47;;;1.71;100.00
45541;BME280;31265;49.680;8.608;2023-04-05T06:31:55;101188.28;;;1.77;100.00
45541;BME280;31265;49.680;8.608;2023-04-05T06:34:27;101183.91;;;1.85;100.00
45541;BME280;31265;49.680;8.608;2023-04-05T06:36:55;101188.50;;;1.93;100.00
45541;BME280;31265;49.680;8.608;2023-04-05T06:39:26;101184.84;;;2.02;100.00
45541;BME280;31265;49.680;8.608;2023-04-05T06:41:54;101185.44;;;2.12;100.00
45541;BME280;31265;49.680;8.608;2023-04-05T06:44:28;101182.09;;;2.23;100.00
45541;BME280;31265;49.680;8.608;2023-04-05T06:46:56;101184.50;;;2.41;100.00
45541;BME280;31265;49.680;8.608;2023-04-05T06:49:25;101185.50;;;2.44;100.00
45541;BME280;31265;49.680;8.608;2023-04-05T06:51:53;101186.31;;;2.50;100.00
45541;BME280;31265;49.680;8.608;2023-04-05T06:54:21;101187.22;;;2.67;100.00
45541;BME280;31265;49.680;8.608;2023-04-05T06:56:54;101186.38;;;2.87;100.00
45541;BME280;31265;49.680;8.608;2023-04-05T06:59:24;101183.69;;;2.98;100.00
45541;BME280;31265;49.680;8.608;2023-04-05T07:01:52;101186.72;;;3.00;100.00
45541;BME280;31265;49.680;8.608;2023-04-05T07:04:21;101183.78;;;3.10;100.00
45541;BME280;31265;49.680;8.608;2023-04-05T07:06:50;101180.63;;;3.28;100.00
45541;BME280;31265;49.680;8.608;2023-04-05T07:09:20;101178.72;;;3.40;100.00
45541;BME280;31265;49.680;8.608;2023-04-05T07:11:51;101182.47;;;3.48;100.00
45541;BME280;31265;49.680;8.608;2023-04-05T07:14:23;101184.31;;;3.68;100.00
45541;BME280;31265;49.680;8.608;2023-04-05T07:16:51;101188.13;;;3.82;100.00
45541;BME280;31265;49.680;8.608;2023-04-05T07:19:21;101173.25;;;4.22;100.00
45541;BME280;31265;49.680;8.608;2023-04-05T07:21:50;101184.22;;;4.11;100.00
45541;BME280;31265;49.680;8.608;2023-04-05T07:24:18;101171.97;;;4.06;100.00
45541;BME280;31265;49.680;8.608;2023-04-05T07:26:48;101176.72;;;4.17;100.00
45541;BME280;31265;49.680;8.608;2023-04-05T07:29:18;101177.72;;;4.08;100.00
45541;BME280;31265;49.680;8.608;2023-04-05T07:31:46;101179.50;;;4.62;100.00
45541;BME280;31265;49.680;8.608;2023-04-05T07:34:15;101179.50;;;4.90;100.00
45541;BME280;31265;49.680;8.608;2023-04-05T07:36:43;101173.25;;;5.01;99.22
45541;BME280;31265;49.680;8.608;2023-04-05T07:39:13;101171.19;;;5.30;93.18
45541;BME280;31265;49.680;8.608;2023-04-05T07:41:42;101174.88;;;5.49;89.75
45541;BME280;31265;49.680;8.608;2023-04-05T07:44:10;101178.81;;;5.65;90.18
45541;BME280;31265;49.680;8.608;2023-04-05T07:46:41;101178.75;;;5.82;87.53
45541;BME280;31265;49.680;8.608;2023-04-05T07:49:14;101180.69;;;5.93;81.30
45541;BME280;31265;49.680;8.608;2023-04-05T07:51:42;101187.72;;;5.88;80.92
45541;BME280;31265;49.680;8.608;2023-04-05T07:54:14;101176.69;;;5.99;80.22
45541;BME280;31265;49.680;8.608;2023-04-05T07:56:44;101179.06;;;6.20;80.70
45541;BME280;31265;49.680;8.608;2023-04-05T07:59:12;101182.44;;;6.37;76.36
45541;BME280;31265;49.680;8.608;2023-04-05T08:01:42;101168.59;;;6.49;74.48
45541;BME280;31265;49.680;8.608;2023-04-05T08:04:10;101185.59;;;6.53;72.15
45541;BME280;31265;49.680;8.608;2023-04-05T08:06:41;101175.41;;;6.72;72.50
45541;BME280;31265;49.680;8.608;2023-04-05T08:09:15;101174.47;;;6.94;69.86
45541;BME280;31265;49.680;8.608;2023-04-05T08:11:44;101175.44;;;7.46;67.59
45541;BME280;31265;49.680;8.608;2023-04-05T08:14:14;101177.94;;;7.49;67.17
45541;BME280;31265;49.680;8.608;2023-04-05T08:16:44;101174.88;;;7.28;66.65
45541;BME280;31265;49.680;8.608;2023-04-05T08:19:12;101172.16;;;7.47;65.15
45541;BME280;31265;49.680;8.608;2023-04-05T08:21:41;101173.25;;;7.39;65.38
45541;BME280;31265;49.680;8.608;2023-04-05T08:24:11;101169.38;;;7.72;64.04
45541;BME280;31265;49.680;8.608;2023-04-05T08:26:40;101171.81;;;7.94;62.43
45541;BME280;31265;49.680;8.608;2023-04-05T08:29:10;101172.75;;;8.35;62.43
45541;BME280;31265;49.680;8.608;2023-04-05T08:31:38;101168.75;;;8.68;59.80
45541;BME280;31265;49.680;8.608;2023-04-05T08:34:09;101157.59;;;8.87;58.80
45541;BME280;31265;49.680;8.608;2023-04-05T08:36:39;101165.72;;;9.25;56.23
45541;BME280;31265;49.680;8.608;2023-04-05T08:39:07;101163.22;;;8.81;55.37
45541;BME280;31265;49.680;8.608;2023-04-05T08:41:40;101165.03;;;8.79;57.98
45541;BME280;31265;49.680;8.608;2023-04-05T08:44:14;101156.09;;;8.99;53.88
45541;BME280;31265;49.680;8.608;2023-04-05T08:46:45;101156.50;;;9.57;51.24
45541;BME280;31265;49.680;8.608;2023-04-05T08:49:17;101159.09;;;9.28;50.52
45541;BME280;31265;49.680;8.608;2023-04-05T08:51:47;101168.16;;;9.55;49.61
45541;BME280;31265;49.680;8.608;2023-04-05T08:54:15;101167.19;;;9.39;49.27
45541;BME280;31265;49.680;8.608;2023-04-05T08:56:46;101150.03;;;9.41;48.82
45541;BME280;31265;49.680;8.608;2023-04-05T08:59:17;101155.56;;;9.54;49.18
45541;BME280;31265;49.680;8.608;2023-04-05T09:01:48;101153.84;;;9.51;50.02
45541;BME280;31265;49.680;8.608;2023-04-05T09:04:21;101152.69;;;9.60;53.92
45541;BME280;31265;49.680;8.608;2023-04-05T09:06:54;101163.16;;;10.22;48.34
45541;BME280;31265;49.680;8.608;2023-04-05T09:09:25;101154.81;;;10.36;47.48
45541;BME280;31265;49.680;8.608;2023-04-05T09:11:56;101162.38;;;10.77;45.36
45541;BME280;31265;49.680;8.608;2023-04-05T09:14:26;101152.38;;;10.53;43.43
45541;BME280;31265;49.680;8.608;2023-04-05T09:16:58;101161.19;;;10.44;43.82
45541;BME280;31265;49.680;8.608;2023-04-05T09:19:32;101158.66;;;9.98;44.11
45541;BME280;31265;49.680;8.608;2023-04-05T09:22:03;101156.09;;;10.00;43.37
45541;BME280;31265;49.680;8.608;2023-04-05T09:24:39;101148.56;;;10.22;44.09
45541;BME280;31265;49.680;8.608;2023-04-05T09:27:10;101147.28;;;9.88;46.61
45541;BME280;31265;49.680;8.608;2023-04-05T09:29:39;101152.03;;;9.67;44.52
45541;BME280;31265;49.680;8.608;2023-04-05T09:32:10;101148.59;;;10.08;43.70
45541;BME280;31265;49.680;8.608;2023-04-05T09:34:41;101146.97;;;10.68;42.79
45541;BME280;31265;49.680;8.608;2023-04-05T09:37:18;101147.91;;;10.50;43.75
45541;BME280;31265;49.680;8.608;2023-04-05T09:39:48;101144.44;;;10.78;42.72
45541;BME280;31265;49.680;8.608;2023-04-05T09:42:19;101145.53;;;10.54;43.25
45541;BME280;31265;49.680;8.608;2023-04-05T09:44:53;101137.53;;;10.71;43.12
45541;BME280;31265;49.680;8.608;2023-04-05T09:47:24;101136.81;;;10.71;42.03
45541;BME280;31265;49.680;8.608;2023-04-05T09:50:02;101136.81;;;11.36;42.50
45541;BME280;31265;49.680;8.608;2023-04-05T09:52:34;101133.38;;;12.02;39.77
45541;BME280;31265;49.680;8.608;2023-04-05T09:55:04;101131.91;;;12.09;39.21
45541;BME280;31265;49.680;8.608;2023-04-05T09:57:36;101127.28;;;11.52;39.61
45541;BME280;31265;49.680;8.608;2023-04-05T10:00:06;101141.06;;;11.37;39.80
45541;BME280;31265;49.680;8.608;2023-04-05T10:02:43;101135.75;;;10.82;44.48
45541;BME280;31265;49.680;8.608;2023-04-05T10:05:14;101134.38;;;11.32;40.16
45541;BME280;31265;49.680;8.608;2023-04-05T10:07:43;101137.72;;;11.75;40.91
45541;BME280;31265;49.680;8.608;2023-04-05T10:10:12;101138.75;;;12.00;38.71
45541;BME280;31265;49.680;8.608;2023-04-05T10:12:42;101144.56;;;11.30;40.82
45541;BME280;31265;49.680;8.608;2023-04-05T10:15:12;101139.88;;;12.13;40.26
45541;BME280;31265;49.680;8.608;2023-04-05T10:17:46;101134.72;;;12.32;39.81
45541;BME280;31265;49.680;8.608;2023-04-05T10:20:18;101140.44;;;12.88;38.65
45541;BME280;31265;49.680;8.608;2023-04-05T10:22:59;101136.94;;;12.72;37.83
45541;BME280;31265;49.680;8.608;2023-04-05T10:25:39;101134.03;;;11.80;39.00
45541;BME280;31265;49.680;8.608;2023-04-05T10:31:01;101126.50;;;12.03;38.15
45541;BME280;31265;49.680;8.608;2023-04-05T10:33:39;101125.25;;;11.60;40.85
45541;BME280;31265;49.680;8.608;2023-04-05T10:36:17;101115.47;;;11.67;42.75
45541;BME280;31265;49.680;8.608;2023-04-05T10:38:59;101115.69;;;11.84;41.60
45541;BME280;31265;49.680;8.608;2023-04-05T10:41:33;101116.16;;;12.19;39.43
45541;BME280;31265;49.680;8.608;2023-04-05T10:44:03;101114.56;;;11.80;38.47
45541;BME280;31265;49.680;8.608;2023-04-05T10:46:43;101110.97;;;12.46;38.11
45541;BME280;31265;49.680;8.608;2023-04-05T10:49:19;101103.16;;;12.22;38.90
45541;BME280;31265;49.680;8.608;2023-04-05T10:51:50;101103.72;;;12.28;38.34
45541;BME280;31265;49.680;8.608;2023-04-05T10:54:19;101102.59;;;12.00;39.77
45541;BME280;31265;49.680;8.608;2023-04-05T10:56:48;101105.38;;;12.31;38.31
45541;BME280;31265;49.680;8.608;2023-04-05T10:59:17;101099.28;;;12.17;37.65
45541;BME280;31265;49.680;8.608;2023-04-05T11:01:46;101099.22;;;12.86;38.72
45541;BME280;31265;49.680;8.608;2023-04-05T11:04:16;101098.38;;;13.24;36.59
45541;BME280;31265;49.680;8.608;2023-04-05T11:06:45;101097.41;;;12.51;39.27
45541;BME280;31265;49.680;8.608;2023-04-05T11:09:17;101105.38;;;12.77;37.27
45541;BME280;31265;49.680;8.608;2023-04-05T11:11:47;101105.75;;;12.20;37.05
45541;BME280;31265;49.680;8.608;2023-04-05T11:14:16;101096.28;;;12.15;41.87
45541;BME280;31265;49.680;8.608;2023-04-05T11:16:46;101086.66;;;12.55;41.07
45541;BME280;31265;49.680;8.608;2023-04-05T11:19:16;101094.69;;;13.14;35.36
45541;BME280;31265;49.680;8.608;2023-04-05T11:21:45;101095.56;;;13.40;36.31
45541;BME280;31265;49.680;8.608;2023-04-05T11:24:15;101085.69;;;12.67;35.88
45541;BME280;31265;49.680;8.608;2023-04-05T11:26:53;101085.44;;;13.11;39.74
45541;BME280;31265;49.680;8.608;2023-04-05T11:29:46;101084.13;;;13.05;36.29
45541;BME280;31265;49.680;8.608;2023-04-05T11:32:17;101082.38;;;13.32;35.30
45541;BME280;31265;49.680;8.608;2023-04-05T11:34:58;101079.59;;;13.25;37.07
45541;BME280;31265;49.680;8.608;2023-04-05T11:40:26;101076.03;;;13.40;37.07
45541;BME280;31265;49.680;8.608;2023-04-05T11:43:02;101068.34;;;13.88;37.52
45541;BME280;31265;49.680;8.608;2023-04-05T11:45:33;101069.66;;;14.12;36.21
45541;BME280;31265;49.680;8.608;2023-04-05T11:48:03;101063.78;;;13.43;35.51
45541;BME280;31265;49.680;8.608;2023-04-05T11:50:33;101061.06;;;12.02;37.47
45541;BME280;31265;49.680;8.608;2023-04-05T11:53:12;101056.72;;;11.86;39.13
45541;BME280;31265;49.680;8.608;2023-04-05T11:55:44;101054.03;;;12.17;37.30
45541;BME280;31265;49.680;8.608;2023-04-05T11:58:14;101050.81;;;13.30;37.41
45541;BME280;31265;49.680;8.608;2023-04-05T12:00:44;101048.81;;;13.15;35.95
45541;BME280;31265;49.680;8.608;2023-04-05T12:03:14;101043.84;;;13.06;36.81
45541;BME280;31265;49.680;8.608;2023-04-05T12:05:47;101047.13;;;13.93;35.05
45541;BME280;31265;49.680;8.608;2023-04-05T12:08:16;101042.78;;;13.42;34.87
45541;BME280;31265;49.680;8.608;2023-04-05T12:10:54;101049.91;;;14.18;34.06
45541;BME280;31265;49.680;8.608;2023-04-05T12:13:27;101037.44;;;13.94;33.11
45541;BME280;31265;49.680;8.608;2023-04-05T12:15:59;101041.06;;;14.04;36.14
45541;BME280;31265;49.680;8.608;2023-04-05T12:18:30;101039.75;;;13.55;34.22
45541;BME280;31265;49.680;8.608;2023-04-05T12:21:01;101038.06;;;13.52;35.43
45541;BME280;31265;49.680;8.608;2023-04-05T12:23:35;101032.75;;;13.39;34.49
45541;BME280;31265;49.680;8.608;2023-04-05T12:26:07;101025.81;;;12.20;36.16
45541;BME280;31265;49.680;8.608;2023-04-05T12:28:48;101023.28;;;12.94;36.67
45541;BME280;31265;49.680;8.608;2023-04-05T12:31:17;101025.75;;;13.63;33.88
45541;BME280;31265;49.680;8.608;2023-04-05T12:33:45;101030.84;;;13.08;37.26
45541;BME280;31265;49.680;8.608;2023-04-05T12:36:14;101020.63;;;12.24;35.43
45541;BME280;31265;49.680;8.608;2023-04-05T12:38:43;101018.53;;;12.56;40.16
45541;BME280;31265;49.680;8.608;2023-04-05T12:41:13;101011.38;;;12.14;39.19
45541;BME280;31265;49.680;8.608;2023-04-05T12:43:42;101011.44;;;12.78;36.73
45541;BME280;31265;49.680;8.608;2023-04-05T12:46:16;101010.66;;;13.41;34.81
45541;BME280;31265;49.680;8.608;2023-04-05T12:48:49;101007.69;;;13.39;32.84
45541;BME280;31265;49.680;8.608;2023-04-05T12:51:19;101006.34;;;12.99;33.79
45541;BME280;31265;49.680;8.608;2023-04-05T12:53:47;101007.09;;;13.00;35.52
45541;BME280;31265;49.680;8.608;2023-04-05T12:56:18;101006.09;;;13.12;34.48
45541;BME280;31265;49.680;8.608;2023-04-05T12:58:49;100996.13;;;12.31;36.63
45541;BME280;31265;49.680;8.608;2023-04-05T13:01:18;100999.09;;;13.44;36.38
45541;BME280;31265;49.680;8.608;2023-04-05T13:03:47;100996.00;;;13.90;32.75
45541;BME280;31265;49.680;8.608;2023-04-05T13:06:22;100988.94;;;14.49;32.42
45541;BME280;31265;49.680;8.608;2023-04-05T13:08:52;100992.47;;;14.32;32.27
45541;BME280;31265;49.680;8.608;2023-04-05T13:11:24;100986.38;;;14.44;32.79
45541;BME280;31265;49.680;8.608;2023-04-05T13:13:53;100980.72;;;14.51;32.48
45541;BME280;31265;49.680;8.608;2023-04-05T13:16:22;100985.66;;;14.78;31.04
45541;BME280;31265;49.680;8.608;2023-04-05T13:18:51;100976.97;;;14.74;30.79